Time;durP1;ratioP1;P1;durP2;ratioP2;P2;SDS_P1;SDS_P2;PMS_P1;PMS_P2;Temp;Humidity;BMP_temperature;BMP_pressure;BME280_temperature;BME280_humidity;BME280_pressure;Samples;Min_cycle;Max_cycle;Signal;HPM_P1;HPM_P2
2020/12/25 00:00:27;;;;;;;1.30;0.97;;;;;;;;;;4964548;28;20446;-69
2020/12/25 00:02:54;;;;;;;3.35;1.00;;;;;;;;;;4969033;28;20042;-69
2020/12/25 00:05:20;;;;;;;1.30;1.20;;;;;;;;;;4959770;28;20055;-69
2020/12/25 00:07:47;;;;;;;1.10;1.00;;;;;;;;;;4967482;28;20066;-69
2020/12/25 00:10:13;;;;;;;3.53;1.23;;;;;;;;;;4959802;28;20051;-69
2020/12/25 00:12:42;;;;;;;4.07;1.50;;;;;;;;;;4968078;28;20340;-67
2020/12/25 00:15:08;;;;;;;2.38;1.40;;;;;;;;;;4959065;28;20181;-68
2020/12/25 00:17:34;;;;;;;3.40;1.67;;;;;;;;;;4957280;28;20039;-67
2020/12/25 00:20:01;;;;;;;1.40;1.10;;;;;;;;;;4962585;28;20042;-69
2020/12/25 00:22:27;;;;;;;5.90;1.33;;;;;;;;;;4968047;28;20039;-69
2020/12/25 00:24:53;;;;;;;4.13;1.30;;;;;;;;;;4959369;28;20039;-69
2020/12/25 00:27:19;;;;;;;1.50;1.17;;;;;;;;;;4962609;28;20146;-68
2020/12/25 00:29:45;;;;;;;1.90;1.20;;;;;;;;;;4957596;28;20039;-69
2020/12/25 00:32:11;;;;;;;3.87;1.27;;;;;;;;;;4957384;28;20491;-68
2020/12/25 00:34:37;;;;;;;2.33;1.40;;;;;;;;;;4947704;28;20133;-69
2020/12/25 00:37:03;;;;;;;1.80;1.20;;;;;;;;;;4962284;28;20043;-69
2020/12/25 00:39:29;;;;;;;2.20;1.42;;;;;;;;;;4967956;28;20400;-69
2020/12/25 00:41:56;;;;;;;2.97;1.30;;;;;;;;;;4958763;28;20039;-69
2020/12/25 00:44:22;;;;;;;3.30;1.33;;;;;;;;;;4966758;28;20441;-67
2020/12/25 00:46:48;;;;;;;3.38;1.10;;;;;;;;;;4968555;28;20782;-67
2020/12/25 00:49:19;;;;;;;3.73;1.33;;;;;;;;;;4950128;28;20150;-67
2020/12/25 00:51:49;;;;;;;1.30;1.10;;;;;;;;;;4946178;28;20130;-67
2020/12/25 00:54:17;;;;;;;5.07;1.10;;;;;;;;;;4941323;28;20138;-67
2020/12/25 00:56:58;;;;;;;7.03;1.40;;;;;;;;;;4948445;28;20057;-68
2020/12/25 00:59:37;;;;;;;1.92;1.40;;;;;;;;;;4946363;28;20092;-68
2020/12/25 01:02:03;;;;;;;4.97;1.02;;;;;;;;;;4964350;28;20054;-68
2020/12/25 01:04:29;;;;;;;1.20;1.00;;;;;;;;;;4963035;28;20043;-68
2020/12/25 01:06:55;;;;;;;2.33;1.30;;;;;;;;;;4964684;28;20490;-70
2020/12/25 01:09:24;;;;;;;2.77;1.37;;;;;;;;;;4969420;28;20582;-67
2020/12/25 01:11:50;;;;;;;5.27;1.50;;;;;;;;;;4971321;28;20046;-68
2020/12/25 01:14:16;;;;;;;1.90;1.37;;;;;;;;;;4960860;28;20129;-67
2020/12/25 01:16:43;;;;;;;2.07;1.57;;;;;;;;;;4964733;28;20035;-68
2020/12/25 01:19:09;;;;;;;1.08;1.00;;;;;;;;;;4963729;28;20459;-68
2020/12/25 01:21:35;;;;;;;3.53;1.57;;;;;;;;;;4966882;28;20106;-68
2020/12/25 01:24:02;;;;;;;1.87;1.20;;;;;;;;;;4968814;28;20494;-68
2020/12/25 01:26:28;;;;;;;1.83;1.10;;;;;;;;;;4966557;28;20035;-68
2020/12/25 01:29:00;;;;;;;1.40;1.30;;;;;;;;;;4969576;28;20039;-68
2020/12/25 01:31:26;;;;;;;1.40;1.10;;;;;;;;;;4967802;28;20298;-68
2020/12/25 01:33:52;;;;;;;2.90;0.90;;;;;;;;;;4967003;28;20067;-68
2020/12/25 01:36:18;;;;;;;1.63;1.00;;;;;;;;;;4963435;28;20415;-68
2020/12/25 01:38:45;;;;;;;3.60;1.00;;;;;;;;;;4969021;28;20535;-68
2020/12/25 01:41:11;;;;;;;1.70;1.15;;;;;;;;;;4963355;28;20050;-68
2020/12/25 01:43:37;;;;;;;1.67;1.00;;;;;;;;;;4968694;28;20070;-68
2020/12/25 01:46:04;;;;;;;1.60;0.80;;;;;;;;;;4961899;28;20043;-68
2020/12/25 01:48:31;;;;;;;2.83;0.93;;;;;;;;;;4970599;28;20461;-68
2020/12/25 01:50:57;;;;;;;1.35;0.90;;;;;;;;;;4967764;28;20046;-69
2020/12/25 01:53:24;;;;;;;2.17;0.70;;;;;;;;;;4963282;28;20371;-68
2020/12/25 01:55:52;;;;;;;1.87;0.73;;;;;;;;;;4963804;28;20054;-68
2020/12/25 01:58:20;;;;;;;2.77;1.00;;;;;;;;;;4967979;28;20122;-68
2020/12/25 02:00:49;;;;;;;;;;;;;;;;;;4970716;28;20050;-68
2020/12/25 02:03:16;;;;;;;1.53;1.00;;;;;;;;;;4962758;28;19944;-68
2020/12/25 02:05:42;;;;;;;1.57;1.03;;;;;;;;;;4963256;28;20039;-69
2020/12/25 02:08:10;;;;;;;3.47;1.10;;;;;;;;;;4963396;28;20044;-68
2020/12/25 02:10:36;;;;;;;1.30;1.00;;;;;;;;;;4946804;28;20066;-68
2020/12/25 02:13:03;;;;;;;3.28;1.52;;;;;;;;;;4963918;28;20050;-68
2020/12/25 02:15:29;;;;;;;2.77;1.60;;;;;;;;;;4966787;28;20303;-68
2020/12/25 02:17:55;;;;;;;2.30;1.37;;;;;;;;;;4970765;28;20296;-68
2020/12/25 02:20:21;;;;;;;4.00;1.37;;;;;;;;;;4962239;28;20423;-68
2020/12/25 02:22:48;;;;;;;3.15;1.10;;;;;;;;;;4963208;28;20047;-68
2020/12/25 02:25:14;;;;;;;1.60;1.10;;;;;;;;;;4966014;28;20086;-68
2020/12/25 02:27:40;;;;;;;4.90;1.40;;;;;;;;;;4963795;28;20039;-68
2020/12/25 02:30:06;;;;;;;5.23;1.10;;;;;;;;;;4956820;28;20055;-68
2020/12/25 02:32:36;;;;;;;4.20;1.20;;;;;;;;;;4959507;28;20042;-68
2020/12/25 02:35:13;;;;;;;1.77;1.03;;;;;;;;;;4958054;28;20047;-68
2020/12/25 02:37:39;;;;;;;2.20;1.20;;;;;;;;;;4968808;28;20057;-68
2020/12/25 02:40:05;;;;;;;2.20;1.13;;;;;;;;;;4961941;28;20791;-68
2020/12/25 02:42:31;;;;;;;1.27;0.90;;;;;;;;;;4942683;29;20040;-68
2020/12/25 02:44:57;;;;;;;1.77;0.80;;;;;;;;;;4959857;28;20462;-68
2020/12/25 02:47:23;;;;;;;1.50;0.87;;;;;;;;;;4968256;28;20046;-69
2020/12/25 02:49:56;;;;;;;3.03;1.40;;;;;;;;;;4957768;28;20047;-68
2020/12/25 02:52:22;;;;;;;2.73;0.90;;;;;;;;;;4963938;28;20421;-68
2020/12/25 02:54:48;;;;;;;0.93;0.87;;;;;;;;;;4964476;28;20055;-68
2020/12/25 02:57:14;;;;;;;4.10;1.10;;;;;;;;;;4941824;28;20046;-68
2020/12/25 02:59:40;;;;;;;1.83;1.00;;;;;;;;;;4965855;28;20109;-68
2020/12/25 03:02:06;;;;;;;2.67;1.50;;;;;;;;;;4959111;28;20054;-68
2020/12/25 03:04:32;;;;;;;5.77;1.27;;;;;;;;;;4963270;28;20057;-68
2020/12/25 03:06:58;;;;;;;1.43;1.10;;;;;;;;;;4967256;28;20522;-68
2020/12/25 03:09:24;;;;;;;1.40;1.30;;;;;;;;;;4948251;28;20047;-68
2020/12/25 03:11:51;;;;;;;3.70;1.50;;;;;;;;;;4963799;28;20050;-68
2020/12/25 03:14:17;;;;;;;3.53;1.40;;;;;;;;;;4965198;28;20054;-68
2020/12/25 03:16:43;;;;;;;1.63;1.27;;;;;;;;;;4963336;28;20047;-68
2020/12/25 03:19:09;;;;;;;1.93;1.40;;;;;;;;;;4961560;28;20039;-68
2020/12/25 03:21:35;;;;;;;2.73;1.27;;;;;;;;;;4967153;28;20120;-68
2020/12/25 03:24:02;;;;;;;4.20;1.43;;;;;;;;;;4959613;28;20051;-69
2020/12/25 03:26:28;;;;;;;1.90;1.47;;;;;;;;;;4960206;28;20039;-68
2020/12/25 03:28:54;;;;;;;1.63;1.10;;;;;;;;;;4959077;28;20704;-69
2020/12/25 03:31:20;;;;;;;1.00;0.90;;;;;;;;;;4945712;28;20039;-69
2020/12/25 03:33:46;;;;;;;2.50;1.40;;;;;;;;;;4954833;28;20090;-69
2020/12/25 03:36:12;;;;;;;1.60;1.40;;;;;;;;;;4967832;28;20049;-67
2020/12/25 03:38:38;;;;;;;1.37;0.97;;;;;;;;;;4966955;28;20039;-67
2020/12/25 03:41:05;;;;;;;2.17;1.10;;;;;;;;;;4967791;28;20050;-68
2020/12/25 03:43:31;;;;;;;2.17;1.23;;;;;;;;;;4963176;28;20290;-68
2020/12/25 03:45:58;;;;;;;2.20;1.30;;;;;;;;;;4964820;28;20107;-68
2020/12/25 03:48:23;;;;;;;1.50;1.07;;;;;;;;;;4965703;28;20044;-68
2020/12/25 03:50:50;;;;;;;1.73;1.10;;;;;;;;;;4966168;28;20039;-68
2020/12/25 03:53:16;;;;;;;3.13;1.10;;;;;;;;;;4966650;28;20039;-68
2020/12/25 03:55:42;;;;;;;1.00;0.90;;;;;;;;;;4957091;28;20047;-67
2020/12/25 03:58:08;;;;;;;3.27;1.17;;;;;;;;;;4971457;28;20661;-68
2020/12/25 04:00:34;;;;;;;3.17;1.13;;;;;;;;;;4968190;28;20051;-67
2020/12/25 04:03:00;;;;;;;2.00;1.17;;;;;;;;;;4969394;28;20051;-68
2020/12/25 04:05:27;;;;;;;1.10;0.93;;;;;;;;;;4963842;28;20038;-69
2020/12/25 04:07:53;;;;;;;1.63;1.13;;;;;;;;;;4967600;28;20050;-69
2020/12/25 04:10:19;;;;;;;2.00;1.20;;;;;;;;;;4958759;28;20118;-69
2020/12/25 04:12:45;;;;;;;0.80;0.80;;;;;;;;;;4969170;28;20090;-69
2020/12/25 04:15:11;;;;;;;2.60;0.97;;;;;;;;;;4958626;28;20047;-69
2020/12/25 04:17:38;;;;;;;0.80;0.80;;;;;;;;;;4964069;28;20122;-69
2020/12/25 04:20:04;;;;;;;2.23;1.20;;;;;;;;;;4961102;28;20471;-69
2020/12/25 04:22:30;;;;;;;0.93;0.93;;;;;;;;;;4963089;28;20095;-67
2020/12/25 04:24:56;;;;;;;1.30;1.03;;;;;;;;;;4969840;28;20031;-67
2020/12/25 04:27:22;;;;;;;1.63;0.90;;;;;;;;;;4972530;28;20046;-67
2020/12/25 04:29:49;;;;;;;1.23;0.93;;;;;;;;;;4946120;28;20043;-68
2020/12/25 04:32:15;;;;;;;2.47;1.10;;;;;;;;;;4970208;28;20039;-67
2020/12/25 04:34:41;;;;;;;3.77;1.20;;;;;;;;;;4971490;28;20074;-67
2020/12/25 04:37:07;;;;;;;0.80;0.80;;;;;;;;;;4968475;28;20075;-67
2020/12/25 04:39:34;;;;;;;1.03;0.90;;;;;;;;;;4963215;28;20051;-67
2020/12/25 04:42:00;;;;;;;1.00;0.97;;;;;;;;;;4967596;28;20097;-67
2020/12/25 04:44:26;;;;;;;1.23;0.90;;;;;;;;;;4966565;28;20049;-67
2020/12/25 04:46:52;;;;;;;2.33;0.80;;;;;;;;;;4961588;28;20051;-68
2020/12/25 04:49:19;;;;;;;2.00;0.77;;;;;;;;;;4961251;28;20189;-68
2020/12/25 04:51:45;;;;;;;1.80;0.90;;;;;;;;;;4964070;28;20047;-68
2020/12/25 04:54:12;;;;;;;0.57;0.57;;;;;;;;;;4960879;28;20615;-68
2020/12/25 04:56:38;;;;;;;1.13;0.80;;;;;;;;;;4968419;28;20046;-68
2020/12/25 04:59:04;;;;;;;1.03;0.80;;;;;;;;;;4962490;28;20071;-68
2020/12/25 05:01:30;;;;;;;2.43;0.73;;;;;;;;;;4962021;28;20043;-68
2020/12/25 05:03:57;;;;;;;2.27;0.77;;;;;;;;;;4968769;28;20043;-68
2020/12/25 05:06:24;;;;;;;0.70;0.70;;;;;;;;;;4957759;28;20166;-68
2020/12/25 05:08:51;;;;;;;1.83;0.70;;;;;;;;;;4966419;28;20300;-68
2020/12/25 05:11:18;;;;;;;1.17;0.82;;;;;;;;;;4963566;28;20061;-69
2020/12/25 05:13:48;;;;;;;0.95;0.73;;;;;;;;;;4956286;28;20126;-67
2020/12/25 05:16:15;;;;;;;3.67;0.83;;;;;;;;;;4959645;28;20565;-68
2020/12/25 05:18:45;;;;;;;0.93;0.88;;;;;;;;;;4967358;28;20106;-67
2020/12/25 05:21:13;;;;;;;0.73;0.73;;;;;;;;;;4964950;28;20050;-67
2020/12/25 05:23:40;;;;;;;1.67;1.00;;;;;;;;;;4964823;28;20063;-67
2020/12/25 05:26:07;;;;;;;;;;;;;;;;;;4968919;28;20050;-67
2020/12/25 05:28:37;;;;;;;5.40;1.00;;;;;;;;;;4941810;28;19923;-67
2020/12/25 05:31:04;;;;;;;1.43;0.60;;;;;;;;;;4959186;28;20051;-68
2020/12/25 05:33:31;;;;;;;1.67;0.80;;;;;;;;;;4958358;28;20079;-68
2020/12/25 05:35:57;;;;;;;1.15;0.90;;;;;;;;;;4955108;28;20041;-68
2020/12/25 05:38:26;;;;;;;1.13;1.00;;;;;;;;;;4971068;28;20162;-68
2020/12/25 05:40:53;;;;;;;4.10;1.00;;;;;;;;;;4965572;28;20050;-68
2020/12/25 05:43:19;;;;;;;1.40;0.80;;;;;;;;;;4965162;28;20109;-67
2020/12/25 05:45:46;;;;;;;0.67;0.60;;;;;;;;;;4963807;28;20049;-68
2020/12/25 05:48:12;;;;;;;0.50;0.50;;;;;;;;;;4962258;28;20365;-67
2020/12/25 05:50:39;;;;;;;0.70;0.70;;;;;;;;;;4958427;28;20446;-67
2020/12/25 05:53:06;;;;;;;0.73;0.65;;;;;;;;;;4959949;28;20106;-69
2020/12/25 05:55:32;;;;;;;1.65;0.73;;;;;;;;;;4959120;28;20681;-67
2020/12/25 05:57:58;;;;;;;1.10;0.80;;;;;;;;;;4966128;28;20071;-68
2020/12/25 06:00:26;;;;;;;2.23;0.60;;;;;;;;;;4959219;28;20092;-68
2020/12/25 06:02:55;;;;;;;2.70;0.87;;;;;;;;;;4960021;28;20295;-69
2020/12/25 06:05:22;;;;;;;1.60;0.70;;;;;;;;;;4963772;28;20060;-68
2020/12/25 06:07:51;;;;;;;1.10;0.60;;;;;;;;;;4959482;28;20250;-68
2020/12/25 06:10:21;;;;;;;1.52;0.80;;;;;;;;;;4966051;28;20139;-68
2020/12/25 06:12:49;;;;;;;1.27;0.80;;;;;;;;;;4970676;28;20411;-68
2020/12/25 06:15:20;;;;;;;0.70;0.70;;;;;;;;;;4966997;28;20046;-69
2020/12/25 06:17:53;;;;;;;1.07;0.60;;;;;;;;;;4965276;28;20038;-68
2020/12/25 06:20:19;;;;;;;1.00;0.60;;;;;;;;;;4964427;28;20055;-69
2020/12/25 06:22:46;;;;;;;1.63;0.55;;;;;;;;;;4964154;28;20467;-68
2020/12/25 06:25:13;;;;;;;0.82;0.57;;;;;;;;;;4959793;28;20187;-68
2020/12/25 06:27:57;;;;;;;1.53;0.90;;;;;;;;;;4966100;28;20061;-68
2020/12/25 06:30:24;;;;;;;0.90;0.90;;;;;;;;;;4964538;28;20525;-69
2020/12/25 06:32:54;;;;;;;1.15;0.90;;;;;;;;;;4962846;28;20051;-68
2020/12/25 06:35:27;;;;;;;0.93;0.80;;;;;;;;;;4957681;28;20526;-68
2020/12/25 06:37:53;;;;;;;1.27;0.93;;;;;;;;;;4958171;28;20618;-69
2020/12/25 06:40:22;;;;;;;1.00;0.70;;;;;;;;;;4959720;28;20051;-69
2020/12/25 06:42:48;;;;;;;2.70;0.53;;;;;;;;;;4961251;28;20141;-69
2020/12/25 06:45:14;;;;;;;1.70;0.77;;;;;;;;;;4959271;28;20070;-68
2020/12/25 06:47:40;;;;;;;2.60;0.70;;;;;;;;;;4959764;28;20043;-69
2020/12/25 06:50:08;;;;;;;1.58;1.00;;;;;;;;;;4958830;28;20062;-69
2020/12/25 06:52:50;;;;;;;2.75;0.70;;;;;;;;;;4957580;28;20102;-69
2020/12/25 06:55:16;;;;;;;0.65;0.65;;;;;;;;;;4955095;28;20475;-69
2020/12/25 06:57:45;;;;;;;1.13;1.00;;;;;;;;;;4965289;28;20049;-69
2020/12/25 07:00:11;;;;;;;1.75;0.70;;;;;;;;;;4958865;28;20078;-69
2020/12/25 07:02:40;;;;;;;0.85;0.60;;;;;;;;;;4936170;29;20055;-69
2020/12/25 07:05:07;;;;;;;3.08;0.60;;;;;;;;;;4961280;28;20078;-67
2020/12/25 07:07:33;;;;;;;1.17;0.60;;;;;;;;;;4959855;28;20093;-67
2020/12/25 07:10:07;;;;;;;0.82;0.60;;;;;;;;;;4956583;28;20059;-68
2020/12/25 07:12:33;;;;;;;1.20;0.60;;;;;;;;;;4963724;28;20047;-68
2020/12/25 07:14:59;;;;;;;0.80;0.70;;;;;;;;;;4952277;28;20043;-68
2020/12/25 07:17:26;;;;;;;0.52;0.52;;;;;;;;;;4962930;28;20045;-68
2020/12/25 07:19:52;;;;;;;1.47;0.90;;;;;;;;;;4971282;28;20463;-68
2020/12/25 07:22:19;;;;;;;1.00;0.90;;;;;;;;;;4960488;28;20046;-68
2020/12/25 07:24:45;;;;;;;0.90;0.70;;;;;;;;;;4952918;28;20047;-68
2020/12/25 07:27:12;;;;;;;4.80;0.90;;;;;;;;;;4965962;28;20474;-68
2020/12/25 07:29:39;;;;;;;0.70;0.68;;;;;;;;;;4965802;28;20483;-68
2020/12/25 07:32:05;;;;;;;1.88;0.80;;;;;;;;;;4973486;28;20547;-70
2020/12/25 07:34:32;;;;;;;0.68;0.68;;;;;;;;;;4952006;28;20064;-70
2020/12/25 07:36:58;;;;;;;0.70;0.65;;;;;;;;;;4931810;29;20113;-70
2020/12/25 07:39:25;;;;;;;0.93;0.60;;;;;;;;;;4934446;29;20043;-70
2020/12/25 07:41:52;;;;;;;0.82;0.80;;;;;;;;;;4934043;29;20068;-70
2020/12/25 07:44:18;;;;;;;1.93;0.67;;;;;;;;;;4913460;29;20047;-70
2020/12/25 07:46:44;;;;;;;0.87;0.67;;;;;;;;;;4931241;29;20044;-70
2020/12/25 07:49:11;;;;;;;1.10;0.67;;;;;;;;;;4933357;29;20043;-70
2020/12/25 07:51:38;;;;;;;0.80;0.75;;;;;;;;;;4935149;29;20051;-70
2020/12/25 07:54:05;;;;;;;1.50;1.10;;;;;;;;;;4939156;29;20408;-70
2020/12/25 07:56:35;;;;;;;1.67;1.02;;;;;;;;;;4921974;29;20126;-69
2020/12/25 07:59:03;;;;;;;1.48;0.90;;;;;;;;;;4932228;29;20040;-70
2020/12/25 08:01:30;;;;;;;3.05;0.95;;;;;;;;;;4932176;29;20047;-70
2020/12/25 08:03:57;;;;;;;2.72;0.90;;;;;;;;;;4939798;29;20090;-69
2020/12/25 08:06:24;;;;;;;0.70;0.70;;;;;;;;;;4939042;29;20044;-68
2020/12/25 08:08:52;;;;;;;2.60;1.10;;;;;;;;;;4931059;29;20059;-71
2020/12/25 08:11:18;;;;;;;1.48;1.10;;;;;;;;;;4933717;29;20052;-71
2020/12/25 08:13:45;;;;;;;1.47;0.70;;;;;;;;;;4938052;29;20050;-68
2020/12/25 08:16:12;;;;;;;2.40;0.95;;;;;;;;;;4937259;29;20319;-68
2020/12/25 08:18:50;;;;;;;2.53;1.30;;;;;;;;;;4932985;29;20055;-69
2020/12/25 08:21:17;;;;;;;2.10;1.00;;;;;;;;;;4933224;29;20044;-69
2020/12/25 08:23:43;;;;;;;0.85;0.77;;;;;;;;;;4937148;29;20112;-68
2020/12/25 08:26:09;;;;;;;1.13;0.70;;;;;;;;;;4933942;29;20411;-68
2020/12/25 08:28:36;;;;;;;1.60;1.02;;;;;;;;;;4935012;29;20378;-68
2020/12/25 08:31:15;;;;;;;1.00;0.90;;;;;;;;;;4930269;29;20052;-68
2020/12/25 08:33:41;;;;;;;1.33;1.00;;;;;;;;;;4934804;29;20040;-68
2020/12/25 08:36:11;;;;;;;2.22;1.10;;;;;;;;;;4928213;29;20111;-69
2020/12/25 08:38:41;;;;;;;2.35;1.13;;;;;;;;;;4932231;29;20500;-71
2020/12/25 08:41:07;;;;;;;4.47;1.37;;;;;;;;;;4929575;29;20500;-70
2020/12/25 08:43:33;;;;;;;1.30;1.20;;;;;;;;;;4932186;29;20476;-69
2020/12/25 08:46:00;;;;;;;4.47;1.35;;;;;;;;;;4934065;29;20219;-69
2020/12/25 08:48:27;;;;;;;1.85;1.38;;;;;;;;;;4934338;29;20046;-69
2020/12/25 08:51:12;;;;;;;1.35;1.05;;;;;;;;;;4932913;29;20047;-69
2020/12/25 08:53:38;;;;;;;1.55;0.90;;;;;;;;;;4936316;29;20063;-69
2020/12/25 08:56:16;;;;;;;1.60;1.05;;;;;;;;;;4937156;29;20048;-69
2020/12/25 08:58:58;;;;;;;4.28;1.90;;;;;;;;;;4934477;29;20119;-69
2020/12/25 09:01:27;;;;;;;2.88;1.40;;;;;;;;;;4937445;29;20044;-69
2020/12/25 09:03:53;;;;;;;2.10;1.23;;;;;;;;;;4940175;29;20126;-69
2020/12/25 09:06:19;;;;;;;4.50;2.55;;;;;;;;;;4934240;29;20080;-69
2020/12/25 09:08:45;;;;;;;5.75;2.00;;;;;;;;;;4933074;29;20044;-68
2020/12/25 09:11:13;;;;;;;2.95;1.55;;;;;;;;;;4932953;29;20096;-69
2020/12/25 09:13:40;;;;;;;3.00;1.80;;;;;;;;;;4934134;29;20150;-69
2020/12/25 09:16:07;;;;;;;2.53;1.50;;;;;;;;;;4935128;29;20040;-69
2020/12/25 09:18:34;;;;;;;3.40;2.03;;;;;;;;;;4932730;29;20059;-69
2020/12/25 09:21:00;;;;;;;4.03;1.50;;;;;;;;;;4930958;29;20095;-69
2020/12/25 09:23:27;;;;;;;2.90;1.80;;;;;;;;;;4930807;29;20044;-70
2020/12/25 09:25:57;;;;;;;2.40;1.30;;;;;;;;;;4933957;29;20075;-70
2020/12/25 09:28:26;;;;;;;0.95;0.88;;;;;;;;;;4931417;29;20590;-70
2020/12/25 09:30:55;;;;;;;3.43;2.13;;;;;;;;;;4932507;29;20048;-70
2020/12/25 09:33:22;;;;;;;1.92;1.30;;;;;;;;;;4929691;29;20082;-69
2020/12/25 09:35:49;;;;;;;1.90;1.50;;;;;;;;;;4931931;29;20058;-69
2020/12/25 09:38:15;;;;;;;0.73;0.73;;;;;;;;;;4915546;29;20534;-69
2020/12/25 09:40:41;;;;;;;1.90;1.00;;;;;;;;;;4936858;29;20071;-69
2020/12/25 09:43:07;;;;;;;2.85;1.27;;;;;;;;;;4939810;29;20055;-69
2020/12/25 09:45:33;;;;;;;1.80;1.08;;;;;;;;;;4931400;29;20392;-69
2020/12/25 09:48:00;;;;;;;1.83;1.50;;;;;;;;;;4931188;29;20047;-69
2020/12/25 09:50:26;;;;;;;1.92;1.58;;;;;;;;;;4927796;29;20043;-69
2020/12/25 09:52:52;;;;;;;2.70;1.50;;;;;;;;;;4936281;29;20050;-69
2020/12/25 09:55:19;;;;;;;2.35;1.60;;;;;;;;;;4932476;29;20528;-70
2020/12/25 09:57:45;;;;;;;3.45;1.50;;;;;;;;;;4931678;29;20044;-69
2020/12/25 10:00:11;;;;;;;2.53;1.58;;;;;;;;;;4925568;29;20044;-69
2020/12/25 10:02:38;;;;;;;3.30;1.58;;;;;;;;;;4931416;29;20059;-70
2020/12/25 10:05:05;;;;;;;2.63;1.27;;;;;;;;;;4934500;29;20039;-70
2020/12/25 10:07:32;;;;;;;5.07;2.20;;;;;;;;;;4935262;29;20122;-70
2020/12/25 10:10:06;;;;;;;1.98;1.45;;;;;;;;;;4935841;29;20051;-70
2020/12/25 10:12:32;;;;;;;3.42;2.17;;;;;;;;;;4930175;29;20055;-70
2020/12/25 10:14:59;;;;;;;3.13;1.95;;;;;;;;;;4921674;29;20918;-70
2020/12/25 10:17:26;;;;;;;3.33;1.42;;;;;;;;;;4929796;29;20047;-70
2020/12/25 10:19:52;;;;;;;3.83;2.30;;;;;;;;;;4929981;29;20048;-70
2020/12/25 10:22:18;;;;;;;3.10;1.42;;;;;;;;;;4930779;29;20038;-70
2020/12/25 10:24:44;;;;;;;3.42;1.70;;;;;;;;;;4931090;29;20040;-70
2020/12/25 10:27:12;;;;;;;4.13;2.40;;;;;;;;;;4929599;29;20036;-69
2020/12/25 10:29:38;;;;;;;4.10;2.10;;;;;;;;;;4938568;29;20611;-69
2020/12/25 10:32:05;;;;;;;6.25;2.10;;;;;;;;;;4930760;29;20058;-70
2020/12/25 10:34:31;;;;;;;2.28;1.60;;;;;;;;;;4927183;29;20036;-69
2020/12/25 10:36:59;;;;;;;2.72;1.60;;;;;;;;;;4925154;29;20047;-70
2020/12/25 10:39:25;;;;;;;5.03;2.00;;;;;;;;;;4927985;29;20076;-69
2020/12/25 10:41:51;;;;;;;4.30;2.17;;;;;;;;;;4929281;29;20169;-69
2020/12/25 10:44:17;;;;;;;2.90;1.90;;;;;;;;;;4931691;29;20059;-69
2020/12/25 10:46:43;;;;;;;2.40;1.75;;;;;;;;;;4931138;29;20043;-69
2020/12/25 10:49:09;;;;;;;2.15;1.48;;;;;;;;;;4926593;29;20051;-69
2020/12/25 10:51:36;;;;;;;2.97;1.67;;;;;;;;;;4927596;29;20126;-69
2020/12/25 10:54:02;;;;;;;1.47;1.00;;;;;;;;;;4929744;29;20341;-71
2020/12/25 10:56:32;;;;;;;3.42;1.45;;;;;;;;;;4931003;29;20295;-70
2020/12/25 10:59:18;;;;;;;3.55;1.60;;;;;;;;;;4930724;29;20123;-70
2020/12/25 11:01:46;;;;;;;2.28;1.30;;;;;;;;;;4932098;29;20051;-70
2020/12/25 11:04:13;;;;;;;1.83;1.23;;;;;;;;;;4929820;29;20046;-71
2020/12/25 11:06:39;;;;;;;2.90;1.10;;;;;;;;;;4927642;29;20051;-70
2020/12/25 11:09:07;;;;;;;6.80;1.70;;;;;;;;;;4926415;29;20073;-71
2020/12/25 11:11:34;;;;;;;1.85;1.63;;;;;;;;;;4910268;29;20070;-71
2020/12/25 11:14:00;;;;;;;2.58;1.33;;;;;;;;;;4911970;29;20052;-71
2020/12/25 11:16:26;;;;;;;2.47;1.50;;;;;;;;;;4912080;29;20048;-71
2020/12/25 11:18:53;;;;;;;1.60;1.50;;;;;;;;;;4910595;29;20303;-72
2020/12/25 11:21:21;;;;;;;1.95;1.52;;;;;;;;;;4910710;29;20058;-71
2020/12/25 11:23:48;;;;;;;3.25;1.40;;;;;;;;;;4912855;29;20044;-71
2020/12/25 11:26:18;;;;;;;3.35;1.23;;;;;;;;;;4913007;29;20044;-71
2020/12/25 11:28:44;;;;;;;2.47;1.20;;;;;;;;;;4913330;29;20054;-71
2020/12/25 11:31:11;;;;;;;4.18;1.35;;;;;;;;;;4915571;29;20096;-71
2020/12/25 11:33:37;;;;;;;0.82;0.80;;;;;;;;;;4911636;29;20063;-71
2020/12/25 11:36:03;;;;;;;2.83;0.90;;;;;;;;;;4909321;29;20051;-71
2020/12/25 11:38:29;;;;;;;5.28;1.35;;;;;;;;;;4910845;29;20047;-72
2020/12/25 11:41:07;;;;;;;1.42;0.90;;;;;;;;;;4912835;29;20059;-71
2020/12/25 11:43:34;;;;;;;3.72;0.90;;;;;;;;;;4911992;29;20068;-71
2020/12/25 11:46:00;;;;;;;3.03;0.80;;;;;;;;;;4913015;29;20108;-72
2020/12/25 11:48:27;;;;;;;2.40;0.98;;;;;;;;;;4912555;29;20048;-72
2020/12/25 11:50:53;;;;;;;2.33;1.30;;;;;;;;;;4911207;29;20579;-72
2020/12/25 11:53:20;;;;;;;1.70;0.77;;;;;;;;;;4910651;29;20497;-72
2020/12/25 11:55:46;;;;;;;2.08;0.82;;;;;;;;;;4913769;29;20048;-72
2020/12/25 11:58:12;;;;;;;3.83;1.00;;;;;;;;;;4913559;29;20115;-72
2020/12/25 12:00:38;;;;;;;2.72;0.90;;;;;;;;;;4913147;29;20127;-72
2020/12/25 12:03:05;;;;;;;1.13;0.70;;;;;;;;;;4914669;29;20043;-72
2020/12/25 12:05:31;;;;;;;0.60;0.60;;;;;;;;;;4913966;29;20044;-71
2020/12/25 12:08:02;;;;;;;0.70;0.70;;;;;;;;;;4897970;29;20100;-72
2020/12/25 12:10:28;;;;;;;2.13;0.90;;;;;;;;;;4929789;29;20447;-72
2020/12/25 12:12:54;;;;;;;3.78;1.08;;;;;;;;;;4936887;29;20395;-71
2020/12/25 12:15:20;;;;;;;3.75;1.10;;;;;;;;;;4939792;29;20107;-72
2020/12/25 12:17:46;;;;;;;2.25;0.75;;;;;;;;;;4935077;29;20073;-72
2020/12/25 12:20:12;;;;;;;1.00;0.85;;;;;;;;;;4939221;29;20091;-72
2020/12/25 12:22:38;;;;;;;2.65;1.23;;;;;;;;;;4938926;29;20048;-72
2020/12/25 12:25:05;;;;;;;1.20;1.00;;;;;;;;;;4936136;29;20733;-72
2020/12/25 12:27:31;;;;;;;3.33;1.55;;;;;;;;;;4934611;29;20401;-72
2020/12/25 12:29:58;;;;;;;1.30;1.13;;;;;;;;;;4934911;29;20408;-72
2020/12/25 12:32:24;;;;;;;2.75;1.20;;;;;;;;;;4935297;29;20414;-72
2020/12/25 12:34:50;;;;;;;1.80;1.10;;;;;;;;;;4930221;29;20127;-72
2020/12/25 12:37:16;;;;;;;4.90;1.50;;;;;;;;;;4929386;29;20040;-72
2020/12/25 12:39:42;;;;;;;1.77;1.20;;;;;;;;;;4933448;29;20450;-72
2020/12/25 12:42:08;;;;;;;1.63;1.05;;;;;;;;;;4932130;29;20046;-72
2020/12/25 12:44:35;;;;;;;1.55;1.10;;;;;;;;;;4933559;29;20078;-71
2020/12/25 12:47:01;;;;;;;1.42;0.75;;;;;;;;;;4931883;29;20059;-72
2020/12/25 12:49:27;;;;;;;2.05;1.00;;;;;;;;;;4940390;29;20443;-72
2020/12/25 12:51:53;;;;;;;2.15;1.23;;;;;;;;;;4933083;29;20427;-72
2020/12/25 12:54:19;;;;;;;1.83;0.80;;;;;;;;;;4929241;29;20127;-72
2020/12/25 12:56:45;;;;;;;3.15;1.00;;;;;;;;;;4927501;29;20047;-72
2020/12/25 12:59:16;;;;;;;1.60;1.00;;;;;;;;;;4935036;29;20508;-72
2020/12/25 13:01:42;;;;;;;1.05;0.93;;;;;;;;;;4927718;29;20058;-72
2020/12/25 13:04:08;;;;;;;2.85;0.80;;;;;;;;;;4929642;29;20050;-73
2020/12/25 13:06:34;;;;;;;2.15;0.80;;;;;;;;;;4910613;29;20044;-72
2020/12/25 13:09:01;;;;;;;1.55;1.02;;;;;;;;;;4929895;29;20067;-72
2020/12/25 13:11:27;;;;;;;1.45;0.90;;;;;;;;;;4929632;29;20040;-72
2020/12/25 13:13:53;;;;;;;2.05;1.00;;;;;;;;;;4931342;29;20074;-72
2020/12/25 13:16:20;;;;;;;3.10;1.00;;;;;;;;;;4926440;29;20573;-72
2020/12/25 13:18:46;;;;;;;0.77;0.70;;;;;;;;;;4915548;29;20054;-72
2020/12/25 13:21:22;;;;;;;1.00;0.90;;;;;;;;;;4928884;29;20051;-73
2020/12/25 13:23:49;;;;;;;4.25;3.10;;;;;;;;;;4934318;28;20090;-72
2020/12/25 13:26:15;;;;;;;1.25;0.88;;;;;;;;;;4914043;29;20602;-73
2020/12/25 13:28:41;;;;;;;1.50;1.00;;;;;;;;;;4933225;29;20043;-72
2020/12/25 13:31:15;;;;;;;2.67;1.30;;;;;;;;;;4925072;29;20052;-73
2020/12/25 13:33:41;;;;;;;4.25;1.10;;;;;;;;;;4926742;29;20040;-72
2020/12/25 13:36:08;;;;;;;3.75;1.35;;;;;;;;;;4931666;29;20487;-72
2020/12/25 13:38:34;;;;;;;2.03;1.42;;;;;;;;;;4930799;29;20373;-72
2020/12/25 13:41:04;;;;;;;2.63;1.50;;;;;;;;;;4931961;29;20103;-72
2020/12/25 13:43:30;;;;;;;5.40;1.10;;;;;;;;;;4933739;29;20090;-73
2020/12/25 13:45:56;;;;;;;1.92;1.20;;;;;;;;;;4927734;29;20169;-73
2020/12/25 13:48:22;;;;;;;3.97;1.30;;;;;;;;;;4931016;29;20147;-73
2020/12/25 13:50:49;;;;;;;4.20;1.73;;;;;;;;;;4929072;29;20056;-74
2020/12/25 13:53:15;;;;;;;2.35;1.25;;;;;;;;;;4930618;29;20076;-73
2020/12/25 13:55:41;;;;;;;4.05;1.58;;;;;;;;;;4927452;29;20066;-74
2020/12/25 13:58:07;;;;;;;1.73;1.42;;;;;;;;;;4930971;29;20040;-74
2020/12/25 14:00:33;;;;;;;2.55;1.50;;;;;;;;;;4934357;29;20047;-73
2020/12/25 14:02:59;;;;;;;1.58;1.30;;;;;;;;;;4914519;29;20073;-73
2020/12/25 14:05:25;;;;;;;1.45;1.27;;;;;;;;;;4940298;29;20044;-72
2020/12/25 14:07:52;;;;;;;4.25;2.20;;;;;;;;;;4930627;29;20071;-73
2020/12/25 14:10:18;;;;;;;3.65;2.10;;;;;;;;;;4931493;29;20051;-73
2020/12/25 14:12:45;;;;;;;;;;;;;;;;;;4931693;29;20039;-73
2020/12/25 14:15:11;;;;;;;15.88;7.07;;;;;;;;;;4929764;29;19969;-72
2020/12/25 14:17:37;;;;;;;23.27;10.88;;;;;;;;;;4924493;29;20042;-72
2020/12/25 14:20:03;;;;;;;9.48;4.43;;;;;;;;;;4930784;29;20051;-73
2020/12/25 14:22:30;;;;;;;3.17;1.73;;;;;;;;;;4929861;29;20047;-72
2020/12/25 14:24:55;;;;;;;4.38;1.45;;;;;;;;;;4911788;29;20060;-72
2020/12/25 14:27:22;;;;;;;5.22;1.70;;;;;;;;;;4909170;29;20036;-73
2020/12/25 14:29:48;;;;;;;3.38;2.00;;;;;;;;;;4926065;29;20067;-73
2020/12/25 14:32:15;;;;;;;4.70;1.60;;;;;;;;;;4924166;29;20056;-72
2020/12/25 14:34:41;;;;;;;5.23;1.53;;;;;;;;;;4923089;29;20036;-72
2020/12/25 14:37:07;;;;;;;4.38;1.70;;;;;;;;;;4929641;29;20166;-74
2020/12/25 14:39:34;;;;;;;4.00;1.60;;;;;;;;;;4923862;29;20063;-72
2020/12/25 14:42:03;;;;;;;2.27;1.30;;;;;;;;;;4929785;29;20508;-72